createdAt,value
2024-01-04T00:00:54.929Z,1.00
2024-01-04T00:01:56.592Z,1.00
2024-01-04T00:02:58.472Z,1.00
2024-01-04T00:04:00.130Z,1.00
2024-01-04T00:05:02.201Z,1.00
2024-01-04T00:06:04.511Z,1.00
2024-01-04T00:07:06.179Z,1.00
2024-01-04T00:08:07.852Z,1.00
2024-01-04T00:09:09.628Z,1.00
2024-01-04T00:10:11.612Z,1.00
2024-01-04T00:11:14.313Z,1.00
2024-01-04T00:12:16.306Z,1.00
2024-01-04T00:13:18.078Z,1.00
2024-01-04T00:14:19.839Z,1.00
2024-01-04T00:15:21.661Z,1.00
2024-01-04T00:16:23.462Z,1.00
2024-01-04T00:17:25.145Z,1.00
2024-01-04T00:18:27.087Z,1.00
2024-01-04T00:19:28.924Z,1.00
2024-01-04T00:20:30.764Z,1.00
2024-01-04T00:21:32.446Z,1.00
2024-01-04T00:22:34.090Z,1.00
2024-01-04T00:23:36.738Z,1.00
2024-01-04T00:24:38.572Z,1.00
2024-01-04T00:25:40.421Z,1.00
2024-01-04T00:26:42.152Z,1.00
2024-01-04T00:27:44.129Z,1.00
2024-01-04T00:28:45.766Z,1.00
2024-01-04T00:29:47.936Z,1.00
2024-01-04T00:30:49.778Z,1.00
2024-01-04T00:31:51.763Z,1.00
2024-01-04T00:32:53.567Z,1.00
2024-01-04T00:33:55.648Z,1.00
2024-01-04T00:34:57.423Z,1.00
2024-01-04T00:35:59.206Z,1.00
2024-01-04T00:37:00.982Z,1.00
2024-01-04T00:38:03.301Z,1.00
2024-01-04T00:39:05.108Z,1.00
2024-01-04T00:40:07.485Z,1.00
2024-01-04T00:41:09.363Z,1.00
2024-01-04T00:42:11.107Z,1.00
2024-01-04T00:43:12.993Z,99.90
2024-01-04T00:44:14.690Z,99.90
2024-01-04T00:45:16.463Z,99.90
2024-01-04T00:46:18.264Z,99.90
2024-01-04T00:47:19.979Z,99.90
2024-01-04T00:48:21.781Z,99.90
2024-01-04T00:49:23.636Z,99.90
2024-01-04T00:50:25.469Z,1.00
2024-01-04T00:51:27.316Z,1.00
2024-01-04T00:52:29.021Z,1.00
2024-01-04T00:53:30.719Z,1.00
2024-01-04T00:54:32.460Z,1.00
2024-01-04T00:55:34.099Z,1.00
2024-01-04T00:56:38.262Z,1.00
2024-01-04T00:57:40.001Z,1.00
2024-01-04T00:58:41.633Z,1.00
2024-01-04T00:59:43.290Z,1.00
2024-01-04T01:00:45.249Z,1.00
2024-01-04T01:01:46.979Z,1.00
2024-01-04T01:02:48.635Z,1.00
2024-01-04T01:03:50.318Z,1.00
2024-01-04T01:04:52.117Z,1.00
2024-01-04T01:05:53.914Z,1.00
2024-01-04T01:06:55.784Z,1.00
2024-01-04T01:07:57.640Z,1.00
2024-01-04T01:08:59.322Z,1.00
2024-01-04T01:10:01.037Z,1.00
2024-01-04T01:11:02.736Z,1.00
2024-01-04T01:12:04.926Z,1.00
2024-01-04T01:13:07.142Z,1.00
2024-01-04T01:14:09.776Z,1.00
2024-01-04T01:15:11.606Z,1.00
2024-01-04T01:16:13.381Z,1.00
2024-01-04T01:17:15.139Z,1.00
2024-01-04T01:18:17.001Z,1.00
2024-01-04T01:19:18.989Z,1.00
2024-01-04T01:20:20.711Z,1.00
2024-01-04T01:21:22.363Z,1.00
2024-01-04T01:22:25.427Z,1.00
2024-01-04T01:23:27.647Z,1.00
2024-01-04T01:24:29.325Z,1.00
2024-01-04T01:25:31.002Z,1.00
2024-01-04T01:26:32.700Z,1.00
2024-01-04T01:27:34.360Z,1.00
2024-01-04T01:28:36.030Z,1.00
2024-01-04T01:29:37.777Z,1.00
2024-01-04T01:30:39.482Z,99.90
2024-01-04T01:31:42.352Z,99.90
2024-01-04T01:32:44.225Z,99.90
2024-01-04T01:33:46.865Z,99.90
2024-01-04T01:34:48.677Z,99.90
2024-01-04T01:35:50.323Z,99.90
2024-01-04T01:36:52.163Z,99.90
2024-01-04T01:37:53.858Z,99.90
2024-01-04T01:38:55.545Z,99.90
2024-01-04T01:39:57.238Z,99.90
2024-01-04T01:41:00.983Z,99.90
2024-01-04T01:42:04.652Z,99.90
2024-01-04T01:43:06.531Z,99.90
2024-01-04T01:44:08.285Z,99.90
2024-01-04T01:45:10.405Z,99.90
2024-01-04T01:46:12.117Z,99.90
2024-01-04T01:47:14.165Z,99.90
2024-01-04T01:48:16.188Z,99.90
2024-01-04T01:49:18.463Z,99.90
2024-01-04T01:50:22.546Z,99.90
2024-01-04T01:51:24.370Z,99.90
2024-01-04T01:52:26.255Z,89.20
2024-01-04T01:53:28.372Z,99.90
2024-01-04T01:54:30.189Z,99.90
2024-01-04T01:55:32.172Z,99.90
2024-01-04T01:56:34.129Z,99.90
2024-01-04T01:57:35.965Z,99.90
2024-01-04T01:58:38.433Z,99.90
2024-01-04T01:59:40.165Z,99.90
2024-01-04T02:00:42.202Z,99.90
2024-01-04T02:01:44.382Z,99.90
2024-01-04T02:02:47.856Z,99.90
2024-01-04T02:03:50.795Z,99.90
2024-01-04T02:04:52.684Z,99.90
2024-01-04T02:05:55.115Z,99.90
2024-01-04T02:06:57.692Z,99.90
2024-01-04T02:07:59.744Z,99.90
2024-01-04T02:09:02.249Z,99.90
2024-01-04T02:10:04.302Z,99.90
2024-01-04T02:11:05.943Z,99.90
2024-01-04T02:12:11.127Z,99.90
2024-01-04T02:13:12.834Z,99.90
2024-01-04T02:14:14.731Z,99.90
2024-01-04T02:15:16.507Z,99.90
2024-01-04T02:16:18.219Z,99.90
2024-01-04T02:17:20.712Z,99.90
2024-01-04T02:18:22.610Z,99.90
2024-01-04T02:19:26.363Z,99.90
2024-01-04T02:20:28.164Z,99.90
2024-01-04T02:21:29.846Z,99.90
2024-01-04T02:22:31.483Z,99.90
2024-01-04T02:23:33.168Z,99.90
2024-01-04T02:24:34.825Z,99.90
2024-01-04T02:25:36.474Z,99.90
2024-01-04T02:26:38.192Z,99.90
2024-01-04T02:27:39.943Z,99.90
2024-01-04T02:28:41.556Z,1.00
2024-01-04T02:29:43.361Z,99.90
2024-01-04T02:30:45.040Z,99.90
2024-01-04T02:31:48.736Z,99.90
2024-01-04T02:32:50.562Z,99.90
2024-01-04T02:33:52.438Z,99.90
2024-01-04T02:34:54.230Z,99.90
2024-01-04T02:35:55.943Z,99.90
2024-01-04T02:36:58.210Z,99.90
2024-01-04T02:37:59.851Z,99.90
2024-01-04T02:39:01.587Z,99.90
2024-01-04T02:40:04.544Z,99.90
2024-01-04T02:41:06.327Z,99.90
2024-01-04T02:42:08.093Z,99.90
2024-01-04T02:43:11.027Z,99.90
2024-01-04T02:44:13.003Z,99.90
2024-01-04T02:45:16.653Z,99.90
2024-01-04T02:46:18.474Z,99.90
2024-01-04T02:47:20.944Z,99.90
2024-01-04T02:48:23.268Z,99.90
2024-01-04T02:49:25.690Z,99.90
2024-01-04T02:50:27.498Z,99.90
2024-01-04T02:51:29.197Z,99.90
2024-01-04T02:52:30.913Z,99.90
2024-01-04T02:53:32.639Z,99.90
2024-01-04T02:54:34.360Z,99.90
2024-01-04T02:55:36.264Z,88.50
2024-01-04T02:56:37.913Z,93.20
2024-01-04T02:57:39.535Z,99.90
2024-01-04T02:58:41.183Z,99.90
2024-01-04T02:59:42.834Z,99.90
2024-01-04T03:00:47.243Z,99.90
2024-01-04T03:01:50.054Z,99.90
2024-01-04T03:02:51.843Z,99.90
2024-01-04T03:03:54.474Z,99.90
2024-01-04T03:04:56.214Z,99.90
2024-01-04T03:05:58.013Z,99.90
2024-01-04T03:06:59.660Z,99.90
2024-01-04T03:08:01.362Z,99.90
2024-01-04T03:09:04.038Z,99.90
2024-01-04T03:10:07.690Z,99.90
2024-01-04T03:11:09.397Z,99.90
2024-01-04T03:12:11.379Z,99.90
2024-01-04T03:13:13.006Z,99.90
2024-01-04T03:14:14.659Z,99.90
2024-01-04T03:15:16.690Z,99.90
2024-01-04T03:16:21.079Z,54.00
2024-01-04T03:17:22.824Z,1.00
2024-01-04T03:18:24.716Z,1.00
2024-01-04T03:19:26.547Z,1.00
2024-01-04T03:20:28.203Z,1.00
2024-01-04T03:21:29.879Z,1.00
2024-01-04T03:22:31.578Z,1.00
2024-01-04T03:23:33.268Z,1.00
2024-01-04T03:24:35.531Z,1.00
2024-01-04T03:25:37.213Z,1.00
2024-01-04T03:26:38.930Z,1.00
2024-01-04T03:27:40.612Z,1.00
2024-01-04T03:28:42.274Z,1.00
2024-01-04T03:29:44.476Z,1.00
2024-01-04T03:30:46.220Z,1.00
2024-01-04T03:31:48.120Z,1.00
2024-01-04T03:32:50.166Z,1.00
2024-01-04T03:33:53.240Z,1.00
2024-01-04T03:34:54.968Z,1.00
2024-01-04T03:35:56.698Z,1.00
2024-01-04T03:36:58.366Z,1.00
2024-01-04T03:38:00.323Z,1.00
2024-01-04T03:39:02.127Z,1.00
2024-01-04T03:40:04.125Z,1.00
2024-01-04T03:41:05.767Z,1.00
2024-01-04T03:42:07.503Z,1.00
2024-01-04T03:43:09.221Z,1.00
2024-01-04T03:44:10.873Z,30.00
2024-01-04T03:45:12.845Z,1.00
2024-01-04T03:46:16.554Z,1.00
2024-01-04T03:47:20.254Z,71.20
2024-01-04T03:48:21.965Z,99.90
2024-01-04T03:49:23.757Z,99.90
2024-01-04T03:50:25.434Z,99.90
2024-01-04T03:51:27.074Z,99.90
2024-01-04T03:52:29.372Z,99.90
2024-01-04T03:53:31.074Z,99.90
2024-01-04T03:54:32.782Z,99.90
2024-01-04T03:55:34.509Z,99.90
2024-01-04T03:56:36.173Z,99.90
2024-01-04T03:57:37.843Z,99.90
2024-01-04T03:58:39.664Z,99.90
2024-01-04T03:59:41.415Z,99.90
2024-01-04T04:00:43.112Z,99.90
2024-01-04T04:01:48.558Z,99.90
2024-01-04T04:02:50.376Z,99.90
2024-01-04T04:03:52.207Z,99.90
2024-01-04T04:04:57.346Z,99.90
2024-01-04T04:05:59.271Z,99.90
2024-01-04T04:07:01.061Z,99.90
2024-01-04T04:08:02.794Z,99.90
2024-01-04T04:09:04.756Z,99.90
2024-01-04T04:10:06.958Z,99.90
2024-01-04T04:11:18.521Z,99.90
2024-01-04T04:12:20.279Z,99.90
2024-01-04T04:13:22.155Z,1.00
2024-01-04T04:14:23.816Z,1.00
2024-01-04T04:15:25.600Z,1.00
2024-01-04T04:16:27.523Z,1.00
2024-01-04T04:17:29.200Z,1.00
2024-01-04T04:18:31.098Z,1.00
2024-01-04T04:19:32.906Z,1.00
2024-01-04T04:20:34.651Z,1.00
2024-01-04T04:21:36.296Z,1.00
2024-01-04T04:22:37.949Z,1.00
2024-01-04T04:23:40.082Z,1.00
2024-01-04T04:24:41.770Z,1.00
2024-01-04T04:25:43.416Z,1.00
2024-01-04T04:26:45.186Z,1.00
2024-01-04T04:27:46.919Z,1.00
2024-01-04T04:28:49.539Z,1.00
2024-01-04T04:29:51.194Z,1.00
2024-01-04T04:30:52.856Z,1.00
2024-01-04T04:31:55.579Z,1.00
2024-01-04T04:32:57.266Z,1.00
2024-01-04T04:33:59.274Z,1.00
2024-01-04T04:35:01.042Z,1.00
2024-01-04T04:36:04.400Z,1.00
2024-01-04T04:37:07.057Z,1.00
2024-01-04T04:38:08.710Z,1.00
2024-01-04T04:39:10.597Z,1.00
2024-01-04T04:40:15.647Z,1.00
2024-01-04T04:41:17.870Z,99.90
2024-01-04T04:42:19.513Z,99.90
2024-01-04T04:43:21.166Z,1.00
2024-01-04T04:44:22.822Z,1.00
2024-01-04T04:45:24.563Z,99.90
2024-01-04T04:46:27.017Z,99.90
2024-01-04T04:47:28.700Z,99.90
2024-01-04T04:48:30.433Z,93.10
2024-01-04T04:49:32.361Z,1.00
2024-01-04T04:50:34.154Z,1.00
2024-01-04T04:51:35.800Z,1.00
2024-01-04T04:52:37.412Z,1.00
2024-01-04T04:53:39.083Z,1.00
2024-01-04T04:54:40.709Z,1.00
2024-01-04T04:55:42.330Z,1.00
2024-01-04T04:56:44.743Z,1.00
2024-01-04T04:57:46.390Z,1.00
2024-01-04T04:58:47.986Z,1.00
2024-01-04T04:59:49.640Z,1.00
2024-01-04T05:00:51.367Z,1.00
2024-01-04T05:01:53.029Z,1.00
2024-01-04T05:02:54.827Z,1.00
2024-01-04T05:03:56.546Z,1.00
2024-01-04T05:04:58.216Z,1.00
2024-01-04T05:05:59.902Z,1.00
2024-01-04T05:07:01.607Z,1.00
2024-01-04T05:08:05.718Z,1.00
2024-01-04T05:09:08.679Z,1.00
2024-01-04T05:10:10.626Z,1.00
2024-01-04T05:11:12.276Z,1.00
2024-01-04T05:12:14.058Z,99.90
2024-01-04T05:13:15.772Z,99.90
2024-01-04T05:14:17.417Z,99.90
2024-01-04T05:15:19.310Z,76.90
2024-01-04T05:16:21.119Z,99.90
2024-01-04T05:17:22.815Z,68.10
2024-01-04T05:18:24.603Z,99.90
2024-01-04T05:19:26.493Z,99.90
2024-01-04T05:20:28.903Z,99.90
2024-01-04T05:21:36.730Z,1.00
2024-01-04T05:22:38.433Z,1.00
2024-01-04T05:23:40.110Z,99.90
2024-01-04T05:24:41.816Z,99.90
2024-01-04T05:25:43.467Z,99.90
2024-01-04T05:26:45.133Z,99.90
2024-01-04T05:27:46.936Z,99.90
2024-01-04T05:28:49.116Z,99.90
2024-01-04T05:29:50.782Z,99.90
2024-01-04T05:30:52.511Z,1.00
2024-01-04T05:31:54.255Z,1.00
2024-01-04T05:32:56.026Z,1.00
2024-01-04T05:33:58.044Z,1.00
2024-01-04T05:34:59.796Z,1.00
2024-01-04T05:36:02.321Z,1.00
2024-01-04T05:37:04.206Z,1.00
2024-01-04T05:38:05.854Z,1.00
2024-01-04T05:39:07.588Z,1.00
2024-01-04T05:40:10.514Z,1.00
2024-01-04T05:41:12.179Z,1.00
2024-01-04T05:42:13.986Z,1.00
2024-01-04T05:43:15.703Z,1.00
2024-01-04T05:44:17.482Z,36.70
2024-01-04T05:45:19.214Z,99.90
2024-01-04T05:46:21.017Z,99.90
2024-01-04T05:47:22.728Z,99.90
2024-01-04T05:48:24.546Z,99.90
2024-01-04T05:49:26.462Z,99.90
2024-01-04T05:50:28.178Z,99.90
2024-01-04T05:51:41.815Z,99.90
2024-01-04T05:52:44.831Z,99.90
2024-01-04T05:53:46.571Z,99.90
2024-01-04T05:54:48.238Z,99.90
2024-01-04T05:55:49.909Z,99.90
2024-01-04T05:56:51.803Z,99.90
2024-01-04T05:57:53.577Z,99.90
2024-01-04T05:58:55.382Z,99.90
2024-01-04T05:59:57.092Z,1.00
2024-01-04T06:00:59.556Z,1.00
2024-01-04T06:02:02.196Z,1.00
2024-01-04T06:03:05.170Z,1.00
2024-01-04T06:04:07.132Z,1.00
2024-01-04T06:05:09.264Z,1.00
2024-01-04T06:06:15.753Z,1.00
2024-01-04T06:07:17.509Z,1.00
2024-01-04T06:08:19.153Z,1.00
2024-01-04T06:09:22.933Z,1.00
2024-01-04T06:10:24.839Z,1.00
2024-01-04T06:11:26.613Z,1.00
2024-01-04T06:12:28.354Z,1.00
2024-01-04T06:13:30.025Z,1.00
2024-01-04T06:14:32.105Z,99.90
2024-01-04T06:15:33.801Z,99.90
2024-01-04T06:16:35.426Z,99.90
2024-01-04T06:17:37.277Z,99.90
2024-01-04T06:18:39.239Z,99.90
2024-01-04T06:19:41.615Z,99.90
2024-01-04T06:20:44.467Z,99.90
2024-01-04T06:21:46.156Z,99.90
2024-01-04T06:22:47.791Z,99.90
2024-01-04T06:23:51.882Z,99.90
2024-01-04T06:24:54.682Z,99.90
2024-01-04T06:25:56.840Z,1.00
2024-01-04T06:26:58.594Z,99.90
2024-01-04T06:28:00.574Z,99.90
2024-01-04T06:29:02.306Z,99.90
2024-01-04T06:30:04.445Z,99.90
2024-01-04T06:31:06.354Z,99.90
2024-01-04T06:32:09.295Z,99.90
2024-01-04T06:33:11.240Z,99.90
2024-01-04T06:34:13.112Z,99.90
2024-01-04T06:35:14.836Z,99.90
2024-01-04T06:36:16.608Z,99.90
2024-01-04T06:37:19.373Z,99.90
2024-01-04T06:38:21.207Z,99.90
2024-01-04T06:39:22.878Z,99.90
2024-01-04T06:40:24.561Z,99.90
2024-01-04T06:41:30.842Z,99.90
2024-01-04T06:42:32.575Z,99.90
2024-01-04T06:43:34.340Z,99.90
2024-01-04T06:44:41.721Z,99.90
2024-01-04T06:45:48.788Z,99.90
2024-01-04T06:46:50.510Z,99.90
2024-01-04T06:47:52.248Z,99.90
2024-01-04T06:48:54.892Z,99.90
2024-01-04T06:50:06.616Z,99.90
2024-01-04T06:51:14.145Z,99.90
2024-01-04T06:52:15.990Z,99.90
2024-01-04T06:53:17.766Z,65.30
2024-01-04T06:54:19.642Z,2.40
2024-01-04T06:55:21.318Z,34.00
2024-01-04T06:56:22.954Z,99.90
2024-01-04T06:57:24.610Z,57.70
2024-01-04T06:58:26.273Z,70.40
2024-01-04T06:59:27.996Z,99.90
2024-01-04T07:00:30.590Z,99.90
2024-01-04T07:01:32.339Z,99.90
2024-01-04T07:02:36.367Z,99.90
2024-01-04T07:03:38.267Z,91.20
2024-01-04T07:04:40.625Z,14.50
2024-01-04T07:05:42.607Z,59.00
2024-01-04T07:06:44.402Z,78.20
2024-01-04T07:07:46.056Z,99.70
2024-01-04T07:08:49.293Z,89.40
2024-01-04T07:09:51.411Z,42.40
2024-01-04T07:10:53.122Z,99.90
2024-01-04T07:11:55.317Z,99.90
2024-01-04T07:12:57.118Z,1.00
2024-01-04T07:13:58.738Z,1.00
2024-01-04T07:15:00.487Z,1.00
2024-01-04T07:16:06.006Z,3.80
2024-01-04T07:17:09.661Z,1.00
2024-01-04T07:18:11.470Z,6.50
2024-01-04T07:19:13.936Z,47.30
2024-01-04T07:20:16.675Z,99.90
2024-01-04T07:21:18.982Z,99.90
2024-01-04T07:22:21.367Z,99.90
2024-01-04T07:23:23.092Z,99.90
2024-01-04T07:24:24.803Z,99.90
2024-01-04T07:25:26.528Z,99.90
2024-01-04T07:26:28.655Z,99.90
2024-01-04T07:27:31.004Z,99.90
2024-01-04T07:28:32.714Z,99.90
2024-01-04T07:29:34.452Z,99.90
2024-01-04T07:30:36.404Z,99.90
2024-01-04T07:31:38.173Z,99.90
2024-01-04T07:32:39.924Z,99.90
2024-01-04T07:33:41.874Z,99.90
2024-01-04T07:34:48.050Z,99.90
2024-01-04T07:35:52.345Z,99.90
2024-01-04T07:36:54.058Z,99.90
2024-01-04T07:37:55.911Z,99.90
2024-01-04T07:38:59.712Z,99.90
2024-01-04T07:40:01.526Z,99.90
2024-01-04T07:41:04.825Z,99.90
2024-01-04T07:42:10.409Z,99.90
2024-01-04T07:43:12.798Z,72.60
2024-01-04T07:44:14.438Z,20.70
2024-01-04T07:45:16.201Z,67.30
2024-01-04T07:46:17.900Z,38.90
2024-01-04T07:47:19.549Z,1.00
2024-01-04T07:48:21.339Z,61.40
2024-01-04T07:49:23.320Z,99.90
2024-01-04T07:50:25.068Z,99.90
2024-01-04T07:51:26.889Z,99.90
2024-01-04T07:52:28.517Z,99.90
2024-01-04T07:53:30.240Z,99.90
2024-01-04T07:54:42.689Z,99.90
2024-01-04T07:55:47.679Z,99.90
2024-01-04T07:56:50.311Z,99.90
2024-01-04T07:57:51.955Z,99.90
2024-01-04T07:58:54.400Z,99.90
2024-01-04T07:59:56.120Z,19.00
2024-01-04T08:00:59.575Z,1.00
2024-01-04T08:02:02.168Z,1.00
2024-01-04T08:03:04.982Z,1.00
2024-01-04T08:04:07.162Z,1.00
2024-01-04T08:05:11.128Z,1.00
2024-01-04T08:06:12.899Z,1.00
2024-01-04T08:07:14.955Z,1.00
2024-01-04T08:08:16.867Z,1.00
2024-01-04T08:09:19.244Z,1.00
2024-01-04T08:10:20.995Z,1.00
2024-01-04T08:11:23.913Z,1.00
2024-01-04T08:12:25.741Z,1.00
2024-01-04T08:13:27.451Z,1.00
2024-01-04T08:14:29.099Z,1.00
2024-01-04T08:15:34.471Z,1.00
2024-01-04T08:16:36.122Z,70.50
2024-01-04T08:17:38.186Z,99.90
2024-01-04T08:18:40.057Z,1.00
2024-01-04T08:19:41.843Z,1.00
2024-01-04T08:20:43.712Z,1.00
2024-01-04T08:21:45.541Z,1.00
2024-01-04T08:22:47.276Z,1.00
2024-01-04T08:23:51.622Z,1.00
2024-01-04T08:24:53.272Z,1.00
2024-01-04T08:25:56.620Z,99.90
2024-01-04T08:26:59.503Z,1.00
2024-01-04T08:28:02.213Z,1.00
2024-01-04T08:29:03.856Z,1.00
2024-01-04T08:30:06.238Z,1.00
2024-01-04T08:31:09.183Z,1.00
2024-01-04T08:32:10.952Z,1.00
2024-01-04T08:33:12.790Z,1.00
2024-01-04T08:34:14.873Z,1.00
2024-01-04T08:35:18.456Z,99.90
2024-01-04T08:36:20.676Z,1.00
2024-01-04T08:37:22.573Z,59.80
2024-01-04T08:38:24.280Z,99.90
2024-01-04T08:39:25.947Z,1.00
2024-01-04T08:40:28.293Z,99.90
2024-01-04T08:41:30.038Z,99.90
2024-01-04T08:42:31.924Z,99.90
2024-01-04T08:43:33.751Z,1.00
2024-01-04T08:44:35.440Z,99.90
2024-01-04T08:45:37.271Z,99.90
2024-01-04T08:46:39.438Z,76.70
2024-01-04T08:47:41.566Z,99.90
2024-01-04T08:48:43.414Z,99.90
2024-01-04T08:49:45.791Z,99.90
2024-01-04T08:50:47.716Z,99.90
2024-01-04T08:51:49.552Z,99.90
2024-01-04T08:52:51.361Z,1.00
2024-01-04T08:53:53.073Z,99.90
2024-01-04T08:54:54.874Z,99.90
2024-01-04T08:55:56.629Z,31.70
2024-01-04T08:56:58.513Z,99.90
2024-01-04T08:58:00.243Z,1.00
2024-01-04T08:59:03.682Z,1.00
2024-01-04T09:00:06.162Z,1.00
2024-01-04T09:01:07.865Z,1.00
2024-01-04T09:02:11.501Z,1.00
2024-01-04T09:03:13.429Z,99.90
2024-01-04T09:04:15.260Z,1.00
2024-01-04T09:05:17.061Z,99.90
2024-01-04T09:06:18.790Z,99.90
2024-01-04T09:07:20.839Z,41.10
2024-01-04T09:08:22.618Z,99.90
2024-01-04T09:09:24.542Z,99.90
2024-01-04T09:10:26.285Z,99.90
2024-01-04T09:11:31.022Z,99.90
2024-01-04T09:12:33.149Z,73.00
2024-01-04T09:13:35.011Z,1.00
2024-01-04T09:14:37.007Z,1.00
2024-01-04T09:15:38.812Z,99.90
2024-01-04T09:16:41.785Z,1.00
2024-01-04T09:17:44.548Z,1.00
2024-01-04T09:18:46.491Z,1.00
2024-01-04T09:19:48.542Z,45.50
2024-01-04T09:20:50.381Z,1.00
2024-01-04T09:21:52.068Z,1.00
2024-01-04T09:22:54.178Z,99.90
2024-01-04T09:23:55.998Z,99.90
2024-01-04T09:24:57.649Z,80.70
2024-01-04T09:25:59.273Z,99.90
2024-01-04T09:27:01.434Z,99.90
2024-01-04T09:28:03.697Z,99.90
2024-01-04T09:29:05.357Z,99.90
2024-01-04T09:30:07.578Z,99.90
2024-01-04T09:31:09.284Z,99.90
2024-01-04T09:32:11.013Z,99.90
2024-01-04T09:33:13.319Z,99.90
2024-01-04T09:34:15.214Z,1.00
2024-01-04T09:35:22.343Z,1.00
2024-01-04T09:36:24.277Z,1.00
2024-01-04T09:37:28.619Z,1.00
2024-01-04T09:38:33.553Z,1.00
2024-01-04T09:39:35.278Z,1.00
2024-01-04T09:40:37.009Z,1.00
2024-01-04T09:41:46.206Z,1.00
2024-01-04T09:42:49.377Z,1.00
2024-01-04T09:43:55.783Z,1.00
2024-01-04T09:45:03.146Z,1.00
2024-01-04T09:46:06.310Z,64.40
2024-01-04T09:47:09.768Z,99.90
2024-01-04T09:48:21.355Z,99.90
2024-01-04T09:49:31.085Z,99.90
2024-01-04T09:50:32.911Z,99.90
2024-01-04T09:51:39.925Z,99.90
2024-01-04T09:52:44.678Z,99.90
2024-01-04T09:53:47.019Z,99.90
2024-01-04T09:54:50.546Z,1.00
2024-01-04T09:55:52.233Z,1.00
2024-01-04T09:56:55.901Z,1.00
2024-01-04T09:57:57.839Z,1.00
2024-01-04T09:59:00.057Z,1.00
2024-01-04T10:00:01.756Z,1.00
2024-01-04T10:01:05.071Z,1.00
2024-01-04T10:02:12.522Z,1.00
2024-01-04T10:03:16.059Z,1.00
2024-01-04T10:04:18.405Z,1.00
2024-01-04T10:05:21.672Z,1.00
2024-01-04T10:06:30.093Z,1.00
2024-01-04T10:07:38.225Z,1.00
2024-01-04T10:08:43.892Z,1.00
2024-01-04T10:09:48.239Z,1.00
2024-01-04T10:10:51.940Z,1.00
2024-01-04T10:12:04.110Z,1.00
2024-01-04T10:13:07.075Z,1.00
2024-01-04T10:14:08.780Z,1.00
2024-01-04T10:15:12.748Z,1.00
2024-01-04T10:16:15.445Z,1.00
2024-01-04T10:17:17.444Z,1.00
2024-01-04T10:18:20.327Z,1.00
2024-01-04T10:19:22.278Z,1.00
2024-01-04T10:20:24.542Z,1.00
2024-01-04T10:21:35.023Z,1.00
2024-01-04T10:22:36.729Z,1.00
2024-01-04T10:23:38.503Z,1.00
2024-01-04T10:24:40.705Z,1.00
2024-01-04T10:25:42.581Z,1.00
2024-01-04T10:26:45.319Z,1.00
2024-01-04T10:28:00.358Z,1.00
2024-01-04T10:29:02.219Z,1.00
2024-01-04T10:30:06.122Z,1.00
2024-01-04T10:31:11.019Z,1.00
2024-01-04T10:32:14.262Z,1.00
2024-01-04T10:33:20.917Z,1.00
2024-01-04T10:34:23.321Z,1.00
2024-01-04T10:35:28.059Z,1.00
2024-01-04T10:36:29.827Z,1.00
2024-01-04T10:37:31.456Z,1.00
2024-01-04T10:38:33.275Z,1.00
2024-01-04T10:39:35.642Z,1.00
2024-01-04T10:40:37.297Z,1.00
2024-01-04T10:41:38.897Z,99.90
2024-01-04T10:42:40.559Z,99.90
2024-01-04T10:43:44.220Z,99.90
2024-01-04T10:44:47.471Z,99.90
2024-01-04T10:45:51.568Z,99.90
2024-01-04T10:47:01.570Z,99.90
2024-01-04T10:48:03.796Z,99.90
2024-01-04T10:49:05.882Z,99.90
2024-01-04T10:50:12.624Z,99.90
2024-01-04T10:51:16.017Z,99.90
2024-01-04T10:52:21.255Z,99.90
2024-01-04T10:53:24.327Z,99.90
2024-01-04T10:54:33.893Z,99.90
2024-01-04T10:55:37.545Z,99.90
2024-01-04T10:56:39.377Z,1.00
2024-01-04T10:57:41.325Z,1.00
2024-01-04T10:58:43.828Z,1.00
2024-01-04T10:59:47.163Z,1.00
2024-01-04T11:00:49.090Z,1.00
2024-01-04T11:01:51.464Z,1.00
2024-01-04T11:02:54.465Z,1.00
2024-01-04T11:03:57.076Z,1.00
2024-01-04T11:04:59.216Z,1.00
2024-01-04T11:06:02.369Z,1.00
2024-01-04T11:07:04.973Z,1.00
2024-01-04T11:08:08.611Z,1.00
2024-01-04T11:09:10.721Z,1.00
2024-01-04T11:10:14.184Z,1.00
2024-01-04T11:11:18.077Z,1.00
2024-01-04T11:12:21.016Z,1.00
2024-01-04T11:13:22.972Z,1.00
2024-01-04T11:14:28.370Z,1.00
2024-01-04T11:15:32.205Z,1.00
2024-01-04T11:16:46.028Z,1.00
2024-01-04T11:17:56.849Z,1.00
2024-01-04T11:19:46.662Z,1.00
2024-01-04T11:20:57.216Z,1.00
2024-01-04T11:22:19.846Z,1.00
2024-01-04T11:23:49.996Z,1.00
2024-01-04T11:25:35.871Z,1.00
2024-01-04T11:26:50.868Z,1.00
2024-01-04T11:27:53.250Z,1.00
2024-01-04T11:28:57.323Z,1.00
2024-01-04T11:29:59.186Z,1.00
2024-01-04T11:31:01.589Z,1.00
2024-01-04T11:32:03.485Z,1.00
2024-01-04T11:33:06.019Z,1.00
2024-01-04T11:34:19.686Z,1.00
2024-01-04T11:35:22.377Z,1.00
2024-01-04T11:36:24.629Z,1.00
2024-01-04T11:37:26.581Z,1.00
2024-01-04T11:38:37.524Z,1.00
2024-01-04T11:39:54.393Z,1.00
2024-01-04T11:40:56.094Z,1.00
2024-01-04T11:41:57.851Z,1.00
2024-01-04T11:43:01.392Z,1.00
2024-01-04T11:44:03.860Z,1.00
2024-01-04T11:45:13.770Z,1.00
2024-01-04T11:46:22.877Z,1.00
2024-01-04T11:47:27.764Z,1.00
2024-01-04T11:48:29.766Z,1.00
2024-01-04T11:49:31.635Z,1.00
2024-01-04T11:50:33.369Z,1.00
2024-01-04T11:51:35.031Z,1.00
2024-01-04T11:52:36.683Z,1.00
2024-01-04T11:53:39.020Z,1.00
2024-01-04T11:54:41.892Z,1.00
2024-01-04T11:55:43.712Z,1.00
2024-01-04T11:56:47.151Z,1.00
2024-01-04T11:57:48.877Z,1.00
2024-01-04T11:58:50.736Z,1.00
2024-01-04T11:59:52.450Z,1.00
2024-01-04T12:00:55.416Z,1.00
2024-01-04T12:01:59.527Z,1.00
2024-01-04T12:03:02.659Z,1.00
2024-01-04T12:04:08.901Z,1.00
2024-01-04T12:05:10.664Z,1.00
2024-01-04T12:06:12.414Z,1.00
2024-01-04T12:07:14.300Z,1.00
2024-01-04T12:08:30.568Z,1.00
2024-01-04T12:09:32.265Z,1.00
2024-01-04T12:10:34.903Z,1.00
2024-01-04T12:11:41.256Z,1.00
2024-01-04T12:12:43.254Z,1.00
2024-01-04T12:13:45.434Z,1.00
2024-01-04T12:14:47.163Z,1.00
2024-01-04T12:15:48.925Z,1.00
2024-01-04T12:16:50.601Z,1.00
2024-01-04T12:17:52.617Z,1.00
2024-01-04T12:18:54.470Z,1.00
2024-01-04T12:19:56.279Z,1.00
2024-01-04T12:21:10.744Z,1.00
2024-01-04T12:22:16.649Z,1.00
2024-01-04T12:23:18.816Z,1.00
2024-01-04T12:24:20.878Z,1.00
2024-01-04T12:25:22.742Z,1.00
2024-01-04T12:26:25.174Z,1.00
2024-01-04T12:27:26.967Z,1.00
2024-01-04T12:28:28.684Z,1.00
2024-01-04T12:29:31.113Z,1.00
2024-01-04T12:30:33.313Z,1.00
2024-01-04T12:31:36.235Z,1.00
2024-01-04T12:32:40.229Z,1.00
2024-01-04T12:33:45.053Z,1.00
2024-01-04T12:34:47.587Z,1.00
2024-01-04T12:35:58.394Z,1.00
2024-01-04T12:37:08.093Z,73.40
2024-01-04T12:38:09.756Z,99.20
2024-01-04T12:39:13.739Z,99.90
2024-01-04T12:40:16.014Z,99.90
2024-01-04T12:41:31.374Z,99.90
2024-01-04T12:42:34.451Z,99.90
2024-01-04T12:43:37.566Z,99.90
2024-01-04T12:44:39.522Z,99.90
2024-01-04T12:45:41.895Z,99.90
2024-01-04T12:46:45.339Z,99.90
2024-01-04T12:47:47.188Z,99.90
2024-01-04T12:48:50.291Z,99.90
2024-01-04T12:49:56.904Z,99.90
2024-01-04T12:51:08.865Z,99.90
2024-01-04T12:52:12.356Z,99.90
2024-01-04T12:53:14.036Z,99.90
2024-01-04T12:54:16.241Z,99.90
2024-01-04T12:55:17.902Z,99.90
2024-01-04T12:56:21.610Z,99.90
2024-01-04T12:57:23.460Z,99.90
2024-01-04T12:58:25.263Z,1.00
2024-01-04T12:59:26.942Z,1.00
2024-01-04T13:00:28.886Z,1.00
2024-01-04T13:01:30.676Z,1.00
2024-01-04T13:02:32.428Z,1.00
2024-01-04T13:03:34.153Z,1.00
2024-01-04T13:04:35.889Z,1.00
2024-01-04T13:05:37.539Z,1.00
2024-01-04T13:06:39.289Z,1.00
2024-01-04T13:07:41.013Z,1.00
2024-01-04T13:08:43.712Z,1.00
2024-01-04T13:09:46.082Z,1.00
2024-01-04T13:10:47.805Z,1.00
2024-01-04T13:11:49.526Z,1.00
2024-01-04T13:12:51.494Z,1.00
2024-01-04T13:13:53.274Z,1.00
2024-01-04T13:14:55.551Z,1.00
2024-01-04T13:15:57.760Z,1.00
2024-01-04T13:16:59.402Z,1.00
2024-01-04T13:18:01.281Z,1.00
2024-01-04T13:19:03.077Z,1.00
2024-01-04T13:20:06.166Z,1.00
2024-01-04T13:21:08.482Z,1.00
2024-01-04T13:22:10.558Z,1.00
2024-01-04T13:23:12.216Z,1.00
2024-01-04T13:24:14.018Z,1.00
2024-01-04T13:25:16.812Z,1.00
2024-01-04T13:26:19.899Z,1.00
2024-01-04T13:27:22.936Z,1.00
2024-01-04T13:28:25.106Z,1.00
2024-01-04T13:29:27.618Z,1.00
2024-01-04T13:30:30.651Z,1.00
2024-01-04T13:31:32.474Z,1.00
2024-01-04T13:32:34.166Z,1.00
2024-01-04T13:33:36.036Z,1.00
2024-01-04T13:34:38.095Z,1.00
2024-01-04T13:35:39.865Z,1.00
2024-01-04T13:36:41.692Z,1.00
2024-01-04T13:37:43.486Z,1.00
2024-01-04T13:38:45.208Z,1.00
2024-01-04T13:39:47.406Z,1.00
2024-01-04T13:40:49.048Z,1.00
2024-01-04T13:41:50.765Z,1.00
2024-01-04T13:42:52.541Z,1.00
2024-01-04T13:43:57.300Z,1.00